sensor_id;sensor_type;location;lat;lon;timestamp;P1;durP1;ratioP1;P2;durP2;ratioP2
47784;SDS011;35233;55.686;37.848;2023-03-01T00:01:04;2.95;;;1.83;;
47784;SDS011;35233;55.686;37.848;2023-03-01T00:03:32;3.10;;;1.58;;
47784;SDS011;35233;55.686;37.848;2023-03-01T00:05:59;2.90;;;1.50;;
47784;SDS011;35233;55.686;37.848;2023-03-01T00:08:25;3.90;;;1.55;;
47784;SDS011;35233;55.686;37.848;2023-03-01T00:11:07;2.60;;;1.30;;
47784;SDS011;35233;55.686;37.848;2023-03-01T00:13:42;2.78;;;1.50;;
47784;SDS011;35233;55.686;37.848;2023-03-01T00:16:10;1.88;;;1.13;;
47784;SDS011;35233;55.686;37.848;2023-03-01T00:18:40;1.42;;;1.33;;
47784;SDS011;35233;55.686;37.848;2023-03-01T00:21:06;2.47;;;1.27;;
47784;SDS011;35233;55.686;37.848;2023-03-01T00:23:33;2.67;;;1.58;;
47784;SDS011;35233;55.686;37.848;2023-03-01T00:26:00;2.22;;;1.42;;
47784;SDS011;35233;55.686;37.848;2023-03-01T00:28:25;1.85;;;1.55;;
47784;SDS011;35233;55.686;37.848;2023-03-01T00:30:51;2.55;;;1.38;;
47784;SDS011;35233;55.686;37.848;2023-03-01T00:33:17;1.73;;;1.40;;
47784;SDS011;35233;55.686;37.848;2023-03-01T00:35:43;2.25;;;1.40;;
47784;SDS011;35233;55.686;37.848;2023-03-01T00:38:09;1.90;;;1.17;;
47784;SDS011;35233;55.686;37.848;2023-03-01T00:40:35;2.97;;;1.17;;
47784;SDS011;35233;55.686;37.848;2023-03-01T00:43:02;1.95;;;1.20;;
47784;SDS011;35233;55.686;37.848;2023-03-01T00:45:28;2.85;;;1.70;;
47784;SDS011;35233;55.686;37.848;2023-03-01T00:47:55;2.60;;;1.50;;
47784;SDS011;35233;55.686;37.848;2023-03-01T00:50:21;2.17;;;1.25;;
47784;SDS011;35233;55.686;37.848;2023-03-01T00:52:50;2.53;;;1.33;;
47784;SDS011;35233;55.686;37.848;2023-03-01T00:55:18;3.10;;;1.33;;
47784;SDS011;35233;55.686;37.848;2023-03-01T00:57:43;2.45;;;1.38;;
47784;SDS011;35233;55.686;37.848;2023-03-01T01:00:09;3.03;;;1.50;;
47784;SDS011;35233;55.686;37.848;2023-03-01T01:02:36;1.13;;;0.90;;
47784;SDS011;35233;55.686;37.848;2023-03-01T01:05:02;2.15;;;1.23;;
47784;SDS011;35233;55.686;37.848;2023-03-01T01:07:28;3.25;;;1.50;;
47784;SDS011;35233;55.686;37.848;2023-03-01T01:09:54;1.33;;;1.23;;
47784;SDS011;35233;55.686;37.848;2023-03-01T01:12:19;1.42;;;1.20;;
47784;SDS011;35233;55.686;37.848;2023-03-01T01:14:45;2.22;;;1.05;;
47784;SDS011;35233;55.686;37.848;2023-03-01T01:17:11;6.00;;;1.08;;
47784;SDS011;35233;55.686;37.848;2023-03-01T01:19:36;1.85;;;1.20;;
47784;SDS011;35233;55.686;37.848;2023-03-01T01:22:02;1.38;;;1.05;;
47784;SDS011;35233;55.686;37.848;2023-03-01T01:24:28;1.83;;;1.42;;
47784;SDS011;35233;55.686;37.848;2023-03-01T01:26:54;1.80;;;1.05;;
47784;SDS011;35233;55.686;37.848;2023-03-01T01:29:19;2.45;;;1.40;;
47784;SDS011;35233;55.686;37.848;2023-03-01T01:31:45;2.30;;;1.30;;
47784;SDS011;35233;55.686;37.848;2023-03-01T01:34:17;3.10;;;1.40;;
47784;SDS011;35233;55.686;37.848;2023-03-01T01:36:47;2.60;;;1.20;;
47784;SDS011;35233;55.686;37.848;2023-03-01T01:39:18;1.90;;;1.33;;
47784;SDS011;35233;55.686;37.848;2023-03-01T01:41:44;1.63;;;1.08;;
47784;SDS011;35233;55.686;37.848;2023-03-01T01:46:44;1.55;;;0.90;;
47784;SDS011;35233;55.686;37.848;2023-03-01T01:49:25;0.82;;;0.77;;
47784;SDS011;35233;55.686;37.848;2023-03-01T01:54:46;1.80;;;1.25;;
47784;SDS011;35233;55.686;37.848;2023-03-01T01:57:23;4.03;;;1.60;;
47784;SDS011;35233;55.686;37.848;2023-03-01T01:59:55;2.08;;;1.13;;
47784;SDS011;35233;55.686;37.848;2023-03-01T02:02:24;2.40;;;1.08;;
47784;SDS011;35233;55.686;37.848;2023-03-01T02:04:52;2.55;;;1.10;;
47784;SDS011;35233;55.686;37.848;2023-03-01T02:07:28;2.05;;;1.27;;
47784;SDS011;35233;55.686;37.848;2023-03-01T02:09:55;2.40;;;1.10;;
47784;SDS011;35233;55.686;37.848;2023-03-01T02:12:23;2.55;;;1.20;;
47784;SDS011;35233;55.686;37.848;2023-03-01T02:14:49;1.35;;;0.98;;
47784;SDS011;35233;55.686;37.848;2023-03-01T02:17:15;2.03;;;1.17;;
47784;SDS011;35233;55.686;37.848;2023-03-01T02:22:30;2.40;;;1.05;;
47784;SDS011;35233;55.686;37.848;2023-03-01T02:27:32;1.95;;;1.20;;
47784;SDS011;35233;55.686;37.848;2023-03-01T02:30:07;3.38;;;1.48;;
47784;SDS011;35233;55.686;37.848;2023-03-01T02:32:33;2.00;;;1.20;;
47784;SDS011;35233;55.686;37.848;2023-03-01T02:35:00;1.52;;;1.15;;
47784;SDS011;35233;55.686;37.848;2023-03-01T02:37:26;2.72;;;1.10;;
47784;SDS011;35233;55.686;37.848;2023-03-01T02:39:58;1.75;;;1.40;;
47784;SDS011;35233;55.686;37.848;2023-03-01T02:42:31;1.83;;;1.10;;
47784;SDS011;35233;55.686;37.848;2023-03-01T02:45:00;2.25;;;1.20;;
47784;SDS011;35233;55.686;37.848;2023-03-01T02:47:26;2.58;;;1.10;;
47784;SDS011;35233;55.686;37.848;2023-03-01T02:49:51;2.45;;;1.30;;
47784;SDS011;35233;55.686;37.848;2023-03-01T02:52:28;4.38;;;1.65;;
47784;SDS011;35233;55.686;37.848;2023-03-01T02:57:33;2.15;;;1.23;;
47784;SDS011;35233;55.686;37.848;2023-03-01T03:00:04;2.65;;;1.50;;
47784;SDS011;35233;55.686;37.848;2023-03-01T03:02:33;1.08;;;0.98;;
47784;SDS011;35233;55.686;37.848;2023-03-01T03:05:10;2.53;;;1.25;;
47784;SDS011;35233;55.686;37.848;2023-03-01T03:07:43;2.20;;;1.33;;
47784;SDS011;35233;55.686;37.848;2023-03-01T03:10:15;2.95;;;1.45;;
47784;SDS011;35233;55.686;37.848;2023-03-01T03:12:52;2.58;;;1.40;;
47784;SDS011;35233;55.686;37.848;2023-03-01T03:15:20;2.03;;;1.38;;
47784;SDS011;35233;55.686;37.848;2023-03-01T03:17:46;2.22;;;0.85;;
47784;SDS011;35233;55.686;37.848;2023-03-01T03:20:13;2.05;;;1.05;;
47784;SDS011;35233;55.686;37.848;2023-03-01T03:22:44;4.32;;;1.40;;
47784;SDS011;35233;55.686;37.848;2023-03-01T03:25:10;1.90;;;1.30;;
47784;SDS011;35233;55.686;37.848;2023-03-01T03:27:37;3.22;;;1.50;;
47784;SDS011;35233;55.686;37.848;2023-03-01T03:30:05;3.65;;;1.40;;
47784;SDS011;35233;55.686;37.848;2023-03-01T03:32:37;2.47;;;1.30;;
47784;SDS011;35233;55.686;37.848;2023-03-01T03:35:07;1.58;;;1.23;;
47784;SDS011;35233;55.686;37.848;2023-03-01T03:37:40;1.13;;;1.00;;
47784;SDS011;35233;55.686;37.848;2023-03-01T03:40:26;2.63;;;1.00;;
47784;SDS011;35233;55.686;37.848;2023-03-01T03:42:53;2.15;;;1.20;;
47784;SDS011;35233;55.686;37.848;2023-03-01T03:45:19;2.10;;;1.23;;
47784;SDS011;35233;55.686;37.848;2023-03-01T03:47:45;2.03;;;1.25;;
47784;SDS011;35233;55.686;37.848;2023-03-01T03:50:12;2.00;;;1.50;;
47784;SDS011;35233;55.686;37.848;2023-03-01T03:52:40;1.52;;;1.13;;
47784;SDS011;35233;55.686;37.848;2023-03-01T03:55:06;3.50;;;1.55;;
47784;SDS011;35233;55.686;37.848;2023-03-01T03:57:41;2.47;;;1.33;;
47784;SDS011;35233;55.686;37.848;2023-03-01T04:00:08;1.65;;;1.33;;
47784;SDS011;35233;55.686;37.848;2023-03-01T04:02:40;2.47;;;1.40;;
47784;SDS011;35233;55.686;37.848;2023-03-01T04:05:07;5.03;;;1.40;;
47784;SDS011;35233;55.686;37.848;2023-03-01T04:07:34;2.10;;;1.30;;
47784;SDS011;35233;55.686;37.848;2023-03-01T04:10:02;2.25;;;1.60;;
47784;SDS011;35233;55.686;37.848;2023-03-01T04:12:28;3.50;;;1.50;;
47784;SDS011;35233;55.686;37.848;2023-03-01T04:14:54;2.42;;;1.27;;
47784;SDS011;35233;55.686;37.848;2023-03-01T04:17:19;1.95;;;1.20;;
47784;SDS011;35233;55.686;37.848;2023-03-01T04:19:45;2.78;;;1.48;;
47784;SDS011;35233;55.686;37.848;2023-03-01T04:22:13;5.22;;;1.30;;
47784;SDS011;35233;55.686;37.848;2023-03-01T04:24:43;3.85;;;1.40;;
47784;SDS011;35233;55.686;37.848;2023-03-01T04:27:09;2.72;;;1.50;;
47784;SDS011;35233;55.686;37.848;2023-03-01T04:29:35;2.45;;;1.50;;
47784;SDS011;35233;55.686;37.848;2023-03-01T04:32:01;1.98;;;1.30;;
47784;SDS011;35233;55.686;37.848;2023-03-01T04:34:28;4.25;;;1.45;;
47784;SDS011;35233;55.686;37.848;2023-03-01T04:36:54;3.28;;;1.50;;
47784;SDS011;35233;55.686;37.848;2023-03-01T04:39:19;1.83;;;1.30;;
47784;SDS011;35233;55.686;37.848;2023-03-01T04:41:45;2.05;;;1.40;;
47784;SDS011;35233;55.686;37.848;2023-03-01T04:44:10;3.22;;;1.63;;
47784;SDS011;35233;55.686;37.848;2023-03-01T04:46:36;3.22;;;1.27;;
47784;SDS011;35233;55.686;37.848;2023-03-01T04:49:02;3.08;;;1.50;;
47784;SDS011;35233;55.686;37.848;2023-03-01T04:51:28;3.75;;;1.55;;
47784;SDS011;35233;55.686;37.848;2023-03-01T04:53:54;2.08;;;1.35;;
47784;SDS011;35233;55.686;37.848;2023-03-01T04:56:20;1.95;;;1.50;;
47784;SDS011;35233;55.686;37.848;2023-03-01T04:58:48;1.73;;;1.33;;
47784;SDS011;35233;55.686;37.848;2023-03-01T05:01:17;3.75;;;1.58;;
47784;SDS011;35233;55.686;37.848;2023-03-01T05:03:45;3.90;;;1.88;;
47784;SDS011;35233;55.686;37.848;2023-03-01T05:06:16;4.00;;;2.08;;
47784;SDS011;35233;55.686;37.848;2023-03-01T05:08:43;3.97;;;1.67;;
47784;SDS011;35233;55.686;37.848;2023-03-01T05:11:09;4.32;;;1.67;;
47784;SDS011;35233;55.686;37.848;2023-03-01T05:13:36;4.47;;;2.00;;
47784;SDS011;35233;55.686;37.848;2023-03-01T05:16:03;5.63;;;1.80;;
47784;SDS011;35233;55.686;37.848;2023-03-01T05:18:31;2.88;;;1.80;;
47784;SDS011;35233;55.686;37.848;2023-03-01T05:21:05;4.25;;;1.77;;
47784;SDS011;35233;55.686;37.848;2023-03-01T05:23:33;4.15;;;2.03;;
47784;SDS011;35233;55.686;37.848;2023-03-01T05:26:00;6.82;;;2.17;;
47784;SDS011;35233;55.686;37.848;2023-03-01T05:28:26;2.97;;;1.88;;
47784;SDS011;35233;55.686;37.848;2023-03-01T05:30:53;3.35;;;1.90;;
47784;SDS011;35233;55.686;37.848;2023-03-01T05:33:19;4.20;;;1.90;;
47784;SDS011;35233;55.686;37.848;2023-03-01T05:35:47;3.03;;;1.95;;
47784;SDS011;35233;55.686;37.848;2023-03-01T05:38:14;3.97;;;2.22;;
47784;SDS011;35233;55.686;37.848;2023-03-01T05:40:41;3.00;;;2.00;;
47784;SDS011;35233;55.686;37.848;2023-03-01T05:43:07;3.55;;;1.88;;
47784;SDS011;35233;55.686;37.848;2023-03-01T05:45:33;2.55;;;1.77;;
47784;SDS011;35233;55.686;37.848;2023-03-01T05:48:01;3.92;;;2.03;;
47784;SDS011;35233;55.686;37.848;2023-03-01T05:50:28;2.70;;;2.00;;
47784;SDS011;35233;55.686;37.848;2023-03-01T05:52:59;3.47;;;2.08;;
47784;SDS011;35233;55.686;37.848;2023-03-01T05:55:41;3.67;;;2.35;;
47784;SDS011;35233;55.686;37.848;2023-03-01T05:58:09;4.25;;;2.20;;
47784;SDS011;35233;55.686;37.848;2023-03-01T06:00:36;2.90;;;1.92;;
47784;SDS011;35233;55.686;37.848;2023-03-01T06:03:02;3.90;;;2.25;;
47784;SDS011;35233;55.686;37.848;2023-03-01T06:05:28;4.40;;;2.22;;
47784;SDS011;35233;55.686;37.848;2023-03-01T06:07:54;3.83;;;2.20;;
47784;SDS011;35233;55.686;37.848;2023-03-01T06:10:21;4.15;;;2.25;;
47784;SDS011;35233;55.686;37.848;2023-03-01T06:12:47;4.00;;;2.22;;
47784;SDS011;35233;55.686;37.848;2023-03-01T06:15:14;5.97;;;2.60;;
47784;SDS011;35233;55.686;37.848;2023-03-01T06:17:41;3.40;;;2.10;;
47784;SDS011;35233;55.686;37.848;2023-03-01T06:20:14;3.63;;;2.08;;
47784;SDS011;35233;55.686;37.848;2023-03-01T06:22:42;3.90;;;2.33;;
47784;SDS011;35233;55.686;37.848;2023-03-01T06:25:08;4.25;;;2.10;;
47784;SDS011;35233;55.686;37.848;2023-03-01T06:27:35;3.55;;;2.38;;
47784;SDS011;35233;55.686;37.848;2023-03-01T06:30:01;3.88;;;1.90;;
47784;SDS011;35233;55.686;37.848;2023-03-01T06:32:27;4.43;;;2.50;;
47784;SDS011;35233;55.686;37.848;2023-03-01T06:34:53;3.63;;;2.20;;
47784;SDS011;35233;55.686;37.848;2023-03-01T06:37:18;4.80;;;2.30;;
47784;SDS011;35233;55.686;37.848;2023-03-01T06:39:44;3.30;;;2.20;;
47784;SDS011;35233;55.686;37.848;2023-03-01T06:42:09;3.60;;;2.28;;
47784;SDS011;35233;55.686;37.848;2023-03-01T06:44:35;3.92;;;2.50;;
47784;SDS011;35233;55.686;37.848;2023-03-01T06:47:01;3.50;;;2.10;;
47784;SDS011;35233;55.686;37.848;2023-03-01T06:49:27;4.07;;;2.28;;
47784;SDS011;35233;55.686;37.848;2023-03-01T06:51:52;4.53;;;2.60;;
47784;SDS011;35233;55.686;37.848;2023-03-01T06:54:18;3.35;;;2.38;;
47784;SDS011;35233;55.686;37.848;2023-03-01T06:56:46;5.45;;;2.58;;
47784;SDS011;35233;55.686;37.848;2023-03-01T06:59:11;4.85;;;2.20;;
47784;SDS011;35233;55.686;37.848;2023-03-01T07:01:37;3.42;;;2.30;;
47784;SDS011;35233;55.686;37.848;2023-03-01T07:04:03;5.43;;;2.85;;
47784;SDS011;35233;55.686;37.848;2023-03-01T07:06:29;4.10;;;2.25;;
47784;SDS011;35233;55.686;37.848;2023-03-01T07:08:55;4.30;;;2.50;;
47784;SDS011;35233;55.686;37.848;2023-03-01T07:11:20;5.88;;;2.50;;
47784;SDS011;35233;55.686;37.848;2023-03-01T07:13:46;5.45;;;2.30;;
47784;SDS011;35233;55.686;37.848;2023-03-01T07:16:12;3.28;;;2.05;;
47784;SDS011;35233;55.686;37.848;2023-03-01T07:18:39;4.45;;;2.42;;
47784;SDS011;35233;55.686;37.848;2023-03-01T07:21:08;2.88;;;2.20;;
47784;SDS011;35233;55.686;37.848;2023-03-01T07:23:36;3.35;;;2.10;;
47784;SDS011;35233;55.686;37.848;2023-03-01T07:26:01;4.15;;;2.30;;
47784;SDS011;35233;55.686;37.848;2023-03-01T07:28:27;3.45;;;2.40;;
47784;SDS011;35233;55.686;37.848;2023-03-01T07:30:53;4.18;;;2.40;;
47784;SDS011;35233;55.686;37.848;2023-03-01T07:33:19;4.07;;;2.47;;
47784;SDS011;35233;55.686;37.848;2023-03-01T07:35:44;3.85;;;2.47;;
47784;SDS011;35233;55.686;37.848;2023-03-01T07:38:10;5.15;;;2.50;;
47784;SDS011;35233;55.686;37.848;2023-03-01T07:40:36;4.40;;;2.63;;
47784;SDS011;35233;55.686;37.848;2023-03-01T07:43:01;4.55;;;2.70;;
47784;SDS011;35233;55.686;37.848;2023-03-01T07:45:27;5.15;;;2.80;;
47784;SDS011;35233;55.686;37.848;2023-03-01T07:47:54;4.25;;;2.75;;
47784;SDS011;35233;55.686;37.848;2023-03-01T07:50:20;3.80;;;2.50;;
47784;SDS011;35233;55.686;37.848;2023-03-01T07:52:47;4.78;;;2.90;;
47784;SDS011;35233;55.686;37.848;2023-03-01T07:55:14;4.20;;;2.88;;
47784;SDS011;35233;55.686;37.848;2023-03-01T07:57:41;4.50;;;2.75;;
47784;SDS011;35233;55.686;37.848;2023-03-01T08:00:07;3.72;;;2.60;;
47784;SDS011;35233;55.686;37.848;2023-03-01T08:02:35;4.90;;;2.70;;
47784;SDS011;35233;55.686;37.848;2023-03-01T08:05:00;4.45;;;2.80;;
47784;SDS011;35233;55.686;37.848;2023-03-01T08:07:26;4.32;;;2.58;;
47784;SDS011;35233;55.686;37.848;2023-03-01T08:09:51;3.97;;;2.72;;
47784;SDS011;35233;55.686;37.848;2023-03-01T08:12:17;5.43;;;2.70;;
47784;SDS011;35233;55.686;37.848;2023-03-01T08:14:42;5.53;;;2.60;;
47784;SDS011;35233;55.686;37.848;2023-03-01T08:17:08;4.57;;;2.50;;
47784;SDS011;35233;55.686;37.848;2023-03-01T08:19:33;5.18;;;2.70;;
47784;SDS011;35233;55.686;37.848;2023-03-01T08:22:00;4.95;;;2.88;;
47784;SDS011;35233;55.686;37.848;2023-03-01T08:24:27;3.90;;;2.58;;
47784;SDS011;35233;55.686;37.848;2023-03-01T08:26:53;5.00;;;2.58;;
47784;SDS011;35233;55.686;37.848;2023-03-01T08:29:19;5.22;;;2.95;;
47784;SDS011;35233;55.686;37.848;2023-03-01T08:31:45;4.75;;;2.85;;
47784;SDS011;35233;55.686;37.848;2023-03-01T08:34:13;4.63;;;2.67;;
47784;SDS011;35233;55.686;37.848;2023-03-01T08:36:42;4.93;;;2.63;;
47784;SDS011;35233;55.686;37.848;2023-03-01T08:39:10;5.10;;;2.80;;
47784;SDS011;35233;55.686;37.848;2023-03-01T08:41:39;5.78;;;2.90;;
47784;SDS011;35233;55.686;37.848;2023-03-01T08:44:05;6.00;;;2.80;;
47784;SDS011;35233;55.686;37.848;2023-03-01T08:46:35;4.95;;;3.00;;
47784;SDS011;35233;55.686;37.848;2023-03-01T08:49:04;4.63;;;2.72;;
47784;SDS011;35233;55.686;37.848;2023-03-01T08:51:33;4.63;;;2.92;;
47784;SDS011;35233;55.686;37.848;2023-03-01T08:54:20;4.45;;;2.92;;
47784;SDS011;35233;55.686;37.848;2023-03-01T08:56:47;4.93;;;2.75;;
47784;SDS011;35233;55.686;37.848;2023-03-01T08:59:14;4.68;;;2.60;;
47784;SDS011;35233;55.686;37.848;2023-03-01T09:01:41;5.03;;;3.22;;
47784;SDS011;35233;55.686;37.848;2023-03-01T09:04:10;6.65;;;3.00;;
47784;SDS011;35233;55.686;37.848;2023-03-01T09:06:36;4.88;;;2.85;;
47784;SDS011;35233;55.686;37.848;2023-03-01T09:09:02;4.25;;;2.90;;
47784;SDS011;35233;55.686;37.848;2023-03-01T09:11:30;4.97;;;3.15;;
47784;SDS011;35233;55.686;37.848;2023-03-01T09:13:56;5.03;;;2.90;;
47784;SDS011;35233;55.686;37.848;2023-03-01T09:16:22;5.90;;;3.20;;
47784;SDS011;35233;55.686;37.848;2023-03-01T09:18:52;5.00;;;3.05;;
47784;SDS011;35233;55.686;37.848;2023-03-01T09:21:19;6.65;;;2.97;;
47784;SDS011;35233;55.686;37.848;2023-03-01T09:23:48;5.97;;;2.97;;
47784;SDS011;35233;55.686;37.848;2023-03-01T09:26:14;5.63;;;3.17;;
47784;SDS011;35233;55.686;37.848;2023-03-01T09:28:44;4.88;;;3.10;;
47784;SDS011;35233;55.686;37.848;2023-03-01T09:31:10;6.28;;;3.53;;
47784;SDS011;35233;55.686;37.848;2023-03-01T09:33:40;6.78;;;3.47;;
47784;SDS011;35233;55.686;37.848;2023-03-01T09:36:07;5.15;;;3.30;;
47784;SDS011;35233;55.686;37.848;2023-03-01T09:38:36;4.82;;;3.20;;
47784;SDS011;35233;55.686;37.848;2023-03-01T09:41:01;5.90;;;3.50;;
47784;SDS011;35233;55.686;37.848;2023-03-01T09:45:59;5.80;;;3.72;;
47784;SDS011;35233;55.686;37.848;2023-03-01T09:48:30;6.75;;;4.00;;
47784;SDS011;35233;55.686;37.848;2023-03-01T09:51:04;5.97;;;3.73;;
47784;SDS011;35233;55.686;37.848;2023-03-01T09:53:37;6.67;;;3.87;;
47784;SDS011;35233;55.686;37.848;2023-03-01T09:59:33;7.47;;;3.92;;
47784;SDS011;35233;55.686;37.848;2023-03-01T10:05:27;6.20;;;3.88;;
47784;SDS011;35233;55.686;37.848;2023-03-01T10:10:51;6.93;;;4.40;;
47784;SDS011;35233;55.686;37.848;2023-03-01T10:15:56;7.28;;;4.82;;
47784;SDS011;35233;55.686;37.848;2023-03-01T10:18:29;7.35;;;4.70;;
47784;SDS011;35233;55.686;37.848;2023-03-01T10:20:58;6.97;;;4.32;;
47784;SDS011;35233;55.686;37.848;2023-03-01T10:23:26;8.00;;;4.82;;
47784;SDS011;35233;55.686;37.848;2023-03-01T10:31:20;6.50;;;4.30;;
47784;SDS011;35233;55.686;37.848;2023-03-01T10:33:54;8.02;;;4.45;;
47784;SDS011;35233;55.686;37.848;2023-03-01T10:36:22;6.20;;;4.03;;
47784;SDS011;35233;55.686;37.848;2023-03-01T10:38:52;7.32;;;4.43;;
47784;SDS011;35233;55.686;37.848;2023-03-01T10:41:23;6.00;;;3.78;;
47784;SDS011;35233;55.686;37.848;2023-03-01T10:43:52;5.85;;;4.03;;
47784;SDS011;35233;55.686;37.848;2023-03-01T10:46:22;7.38;;;4.65;;
47784;SDS011;35233;55.686;37.848;2023-03-01T10:51:43;6.70;;;4.25;;
47784;SDS011;35233;55.686;37.848;2023-03-01T10:54:30;7.45;;;3.92;;
47784;SDS011;35233;55.686;37.848;2023-03-01T10:57:01;6.07;;;4.20;;
47784;SDS011;35233;55.686;37.848;2023-03-01T10:59:30;7.07;;;4.18;;
47784;SDS011;35233;55.686;37.848;2023-03-01T11:04:58;5.97;;;4.00;;
47784;SDS011;35233;55.686;37.848;2023-03-01T11:07:24;6.95;;;4.38;;
47784;SDS011;35233;55.686;37.848;2023-03-01T11:09:49;7.93;;;3.92;;
47784;SDS011;35233;55.686;37.848;2023-03-01T11:12:15;6.97;;;4.15;;
47784;SDS011;35233;55.686;37.848;2023-03-01T11:14:49;6.32;;;3.97;;
47784;SDS011;35233;55.686;37.848;2023-03-01T11:17:30;5.50;;;3.67;;
47784;SDS011;35233;55.686;37.848;2023-03-01T11:22:38;6.97;;;3.90;;
47784;SDS011;35233;55.686;37.848;2023-03-01T11:25:13;6.00;;;3.97;;
47784;SDS011;35233;55.686;37.848;2023-03-01T11:27:41;6.38;;;3.75;;
47784;SDS011;35233;55.686;37.848;2023-03-01T11:30:23;6.15;;;3.90;;
47784;SDS011;35233;55.686;37.848;2023-03-01T11:35:30;5.25;;;3.75;;
47784;SDS011;35233;55.686;37.848;2023-03-01T11:45:51;5.82;;;3.78;;
47784;SDS011;35233;55.686;37.848;2023-03-01T11:51:05;5.63;;;3.60;;
47784;SDS011;35233;55.686;37.848;2023-03-01T11:56:31;6.10;;;3.83;;
47784;SDS011;35233;55.686;37.848;2023-03-01T12:12:54;5.65;;;3.45;;
47784;SDS011;35233;55.686;37.848;2023-03-01T12:21:47;5.75;;;3.83;;
47784;SDS011;35233;55.686;37.848;2023-03-01T12:29:45;6.38;;;3.70;;
47784;SDS011;35233;55.686;37.848;2023-03-01T12:35:16;5.57;;;3.75;;
47784;SDS011;35233;55.686;37.848;2023-03-01T12:40:33;5.85;;;3.75;;
47784;SDS011;35233;55.686;37.848;2023-03-01T12:44:08;6.25;;;3.55;;
47784;SDS011;35233;55.686;37.848;2023-03-01T12:46:21;5.40;;;3.75;;
47784;SDS011;35233;55.686;37.848;2023-03-01T12:51:49;6.18;;;3.40;;
47784;SDS011;35233;55.686;37.848;2023-03-01T12:54:25;5.10;;;3.17;;
47784;SDS011;35233;55.686;37.848;2023-03-01T12:56:53;5.20;;;3.60;;
47784;SDS011;35233;55.686;37.848;2023-03-01T13:15:28;5.07;;;3.38;;
47784;SDS011;35233;55.686;37.848;2023-03-01T13:18:46;6.45;;;3.80;;
47784;SDS011;35233;55.686;37.848;2023-03-01T13:20:51;5.35;;;3.22;;
47784;SDS011;35233;55.686;37.848;2023-03-01T13:33:50;5.72;;;3.55;;
47784;SDS011;35233;55.686;37.848;2023-03-01T13:46:48;8.35;;;5.07;;
47784;SDS011;35233;55.686;37.848;2023-03-01T13:49:19;7.75;;;5.05;;
47784;SDS011;35233;55.686;37.848;2023-03-01T13:51:48;7.63;;;5.18;;
47784;SDS011;35233;55.686;37.848;2023-03-01T13:54:16;9.88;;;5.03;;
47784;SDS011;35233;55.686;37.848;2023-03-01T13:56:48;8.30;;;5.60;;
47784;SDS011;35233;55.686;37.848;2023-03-01T13:59:15;8.15;;;5.43;;
47784;SDS011;35233;55.686;37.848;2023-03-01T14:01:43;7.75;;;5.30;;
47784;SDS011;35233;55.686;37.848;2023-03-01T14:04:22;6.82;;;4.93;;
47784;SDS011;35233;55.686;37.848;2023-03-01T14:06:50;7.60;;;5.10;;
47784;SDS011;35233;55.686;37.848;2023-03-01T14:19:45;8.13;;;5.28;;
47784;SDS011;35233;55.686;37.848;2023-03-01T14:22:22;7.95;;;5.68;;
47784;SDS011;35233;55.686;37.848;2023-03-01T14:24:54;8.52;;;5.15;;
47784;SDS011;35233;55.686;37.848;2023-03-01T14:27:25;6.97;;;4.95;;
47784;SDS011;35233;55.686;37.848;2023-03-01T14:29:57;7.68;;;5.30;;
47784;SDS011;35233;55.686;37.848;2023-03-01T14:32:26;7.40;;;5.20;;
47784;SDS011;35233;55.686;37.848;2023-03-01T14:34:53;7.63;;;5.30;;
47784;SDS011;35233;55.686;37.848;2023-03-01T14:37:29;8.32;;;5.32;;
47784;SDS011;35233;55.686;37.848;2023-03-01T14:39:58;7.20;;;5.35;;
47784;SDS011;35233;55.686;37.848;2023-03-01T14:42:27;7.93;;;5.28;;
47784;SDS011;35233;55.686;37.848;2023-03-01T14:44:56;8.13;;;4.95;;
47784;SDS011;35233;55.686;37.848;2023-03-01T14:49:53;7.80;;;5.07;;
47784;SDS011;35233;55.686;37.848;2023-03-01T14:52:31;8.00;;;5.05;;
47784;SDS011;35233;55.686;37.848;2023-03-01T14:55:02;6.88;;;4.60;;
47784;SDS011;35233;55.686;37.848;2023-03-01T14:57:30;9.52;;;5.28;;
47784;SDS011;35233;55.686;37.848;2023-03-01T14:59:59;8.45;;;5.05;;
47784;SDS011;35233;55.686;37.848;2023-03-01T15:02:30;7.07;;;4.90;;
47784;SDS011;35233;55.686;37.848;2023-03-01T15:04:58;7.45;;;5.00;;
47784;SDS011;35233;55.686;37.848;2023-03-01T15:07:31;7.60;;;5.03;;
47784;SDS011;35233;55.686;37.848;2023-03-01T15:10:03;7.10;;;5.00;;
47784;SDS011;35233;55.686;37.848;2023-03-01T15:14:56;7.28;;;5.13;;
47784;SDS011;35233;55.686;37.848;2023-03-01T15:17:35;7.93;;;5.28;;
47784;SDS011;35233;55.686;37.848;2023-03-01T15:20:03;8.05;;;5.70;;
47784;SDS011;35233;55.686;37.848;2023-03-01T15:22:31;7.95;;;5.30;;
47784;SDS011;35233;55.686;37.848;2023-03-01T15:24:57;8.95;;;5.82;;
47784;SDS011;35233;55.686;37.848;2023-03-01T15:27:23;8.25;;;5.38;;
47784;SDS011;35233;55.686;37.848;2023-03-01T15:29:55;7.75;;;5.05;;
47784;SDS011;35233;55.686;37.848;2023-03-01T15:32:30;9.63;;;5.30;;
47784;SDS011;35233;55.686;37.848;2023-03-01T15:34:58;7.78;;;5.10;;
47784;SDS011;35233;55.686;37.848;2023-03-01T15:42:56;8.85;;;5.40;;
47784;SDS011;35233;55.686;37.848;2023-03-01T15:45:27;9.25;;;5.68;;
47784;SDS011;35233;55.686;37.848;2023-03-01T15:47:55;8.20;;;5.43;;
47784;SDS011;35233;55.686;37.848;2023-03-01T15:50:35;7.90;;;5.38;;
47784;SDS011;35233;55.686;37.848;2023-03-01T15:53:06;7.50;;;5.03;;
47784;SDS011;35233;55.686;37.848;2023-03-01T15:55:36;6.78;;;4.78;;
47784;SDS011;35233;55.686;37.848;2023-03-01T15:58:24;7.18;;;4.97;;
47784;SDS011;35233;55.686;37.848;2023-03-01T16:00:50;7.20;;;5.13;;
47784;SDS011;35233;55.686;37.848;2023-03-01T16:03:21;6.97;;;4.80;;
47784;SDS011;35233;55.686;37.848;2023-03-01T16:05:47;9.02;;;5.25;;
47784;SDS011;35233;55.686;37.848;2023-03-01T16:08:13;6.85;;;4.68;;
47784;SDS011;35233;55.686;37.848;2023-03-01T16:10:40;9.30;;;4.95;;
47784;SDS011;35233;55.686;37.848;2023-03-01T16:13:08;6.60;;;4.32;;
47784;SDS011;35233;55.686;37.848;2023-03-01T16:15:35;7.10;;;4.63;;
47784;SDS011;35233;55.686;37.848;2023-03-01T16:18:01;7.20;;;5.03;;
47784;SDS011;35233;55.686;37.848;2023-03-01T16:20:28;9.25;;;5.15;;
47784;SDS011;35233;55.686;37.848;2023-03-01T16:23:02;6.53;;;4.22;;
47784;SDS011;35233;55.686;37.848;2023-03-01T16:25:33;5.82;;;4.30;;
47784;SDS011;35233;55.686;37.848;2023-03-01T16:27:59;6.82;;;4.75;;
47784;SDS011;35233;55.686;37.848;2023-03-01T16:30:29;7.68;;;4.43;;
47784;SDS011;35233;55.686;37.848;2023-03-01T16:32:54;7.65;;;4.20;;
47784;SDS011;35233;55.686;37.848;2023-03-01T16:35:20;5.47;;;4.25;;
47784;SDS011;35233;55.686;37.848;2023-03-01T16:37:46;7.00;;;4.60;;
47784;SDS011;35233;55.686;37.848;2023-03-01T16:40:17;6.35;;;4.20;;
47784;SDS011;35233;55.686;37.848;2023-03-01T16:42:45;6.57;;;4.25;;
47784;SDS011;35233;55.686;37.848;2023-03-01T16:45:12;6.57;;;4.20;;
47784;SDS011;35233;55.686;37.848;2023-03-01T16:47:37;6.45;;;4.32;;
47784;SDS011;35233;55.686;37.848;2023-03-01T16:50:03;7.80;;;4.20;;
47784;SDS011;35233;55.686;37.848;2023-03-01T16:52:28;6.47;;;4.22;;
47784;SDS011;35233;55.686;37.848;2023-03-01T16:54:54;4.93;;;3.60;;
47784;SDS011;35233;55.686;37.848;2023-03-01T16:57:19;5.72;;;3.75;;
47784;SDS011;35233;55.686;37.848;2023-03-01T16:59:45;6.20;;;3.47;;
47784;SDS011;35233;55.686;37.848;2023-03-01T17:02:13;5.55;;;3.75;;
47784;SDS011;35233;55.686;37.848;2023-03-01T17:04:41;5.45;;;3.28;;
47784;SDS011;35233;55.686;37.848;2023-03-01T17:07:07;5.07;;;3.38;;
47784;SDS011;35233;55.686;37.848;2023-03-01T17:09:35;5.85;;;3.47;;
47784;SDS011;35233;55.686;37.848;2023-03-01T17:12:05;5.75;;;3.40;;